Time;durP1;ratioP1;P1;durP2;ratioP2;P2;SDS_P1;SDS_P2;PMS_P1;PMS_P2;Temp;Humidity;BMP_temperature;BMP_pressure;BME280_temperature;BME280_humidity;BME280_pressure;Samples;Min_cycle;Max_cycle;Signal;HPM_P1;HPM_P2
2022/10/08 00:00:08;;;;;;;3.17;1.63;;;13.30;99.90;;;;;;5015408;28;20042;-73
2022/10/08 00:02:34;;;;;;;7.28;1.73;;;;;;;;;;5014373;28;20038;-73
2022/10/08 00:05:00;;;;;;;8.13;2.13;;;;;;;;;;5013942;28;20068;-74
2022/10/08 00:07:26;;;;;;;5.20;1.55;;;12.90;99.90;;;;;;4997749;28;20046;-73
2022/10/08 00:09:51;;;;;;;9.60;1.77;;;13.00;99.90;;;;;;5015152;28;20037;-73
2022/10/08 00:12:17;;;;;;;7.80;1.67;;;13.00;99.90;;;;;;5013919;28;20508;-74
2022/10/08 00:14:43;;;;;;;6.78;2.30;;;;;;;;;;5013604;28;20104;-73
2022/10/08 00:17:08;;;;;;;4.32;1.70;;;13.00;99.90;;;;;;5015201;28;20044;-74
2022/10/08 00:19:34;;;;;;;8.63;2.63;;;12.90;99.90;;;;;;5000394;28;20523;-73
2022/10/08 00:21:59;;;;;;;12.73;2.58;;;12.90;99.90;;;;;;5028924;28;20068;-73
2022/10/08 00:24:26;;;;;;;7.63;2.13;;;;;;;;;;5030990;28;20101;-75
2022/10/08 00:26:52;;;;;;;5.75;2.80;;;13.10;99.90;;;;;;5027510;28;20053;-74
2022/10/08 00:29:19;;;;;;;6.03;1.90;;;12.90;99.90;;;;;;5015354;28;20038;-73
2022/10/08 00:31:47;;;;;;;9.93;2.70;;;12.90;99.90;;;;;;5014828;28;20042;-74
2022/10/08 00:34:17;;;;;;;7.32;2.35;;;13.00;99.90;;;;;;5014696;28;20065;-73
2022/10/08 00:36:43;;;;;;;6.07;1.92;;;13.00;99.90;;;;;;5013681;28;20519;-73
2022/10/08 00:39:17;;;;;;;5.13;1.58;;;12.80;99.90;;;;;;5014932;28;20065;-73
2022/10/08 00:41:46;;;;;;;4.78;1.73;;;13.00;99.90;;;;;;5014729;28;20454;-73
2022/10/08 00:44:52;;;;;;;5.82;1.73;;;12.90;99.90;;;;;;5013520;28;20042;-73
2022/10/08 00:47:21;;;;;;;5.18;1.65;;;12.90;99.90;;;;;;5013203;28;20038;-73
2022/10/08 00:49:50;;;;;;;5.65;1.80;;;13.10;99.90;;;;;;5013627;28;20042;-74
2022/10/08 00:52:17;;;;;;;6.35;1.55;;;;;;;;;;5013269;28;20042;-73
2022/10/08 00:54:43;;;;;;;6.55;1.63;;;;;;;;;;5014214;28;20057;-74
2022/10/08 00:57:09;;;;;;;6.75;2.70;;;;;;;;;;5013103;28;20131;-74
2022/10/08 00:59:36;;;;;;;4.93;1.50;;;13.10;99.90;;;;;;5013090;28;20046;-74
2022/10/08 01:02:01;;;;;;;4.75;1.52;;;13.00;99.90;;;;;;5012956;28;20045;-74
2022/10/08 01:04:28;;;;;;;5.10;1.63;;;12.80;99.90;;;;;;5012920;28;20038;-74
2022/10/08 01:07:21;;;;;;;7.55;1.50;;;13.00;99.90;;;;;;5012922;28;20072;-74
2022/10/08 01:10:02;;;;;;;9.80;2.42;;;13.00;99.90;;;;;;5013078;28;20030;-74
2022/10/08 01:12:28;;;;;;;5.82;1.45;;;;;;;;;;5013155;28;20066;-74
2022/10/08 01:14:59;;;;;;;5.07;1.48;;;12.80;99.90;;;;;;4996086;28;20510;-75
2022/10/08 01:17:47;;;;;;;8.38;1.70;;;13.00;99.90;;;;;;5013099;28;20389;-74
2022/10/08 01:20:29;;;;;;;6.25;1.27;;;12.90;99.90;;;;;;4993233;28;20051;-74
2022/10/08 01:23:19;;;;;;;4.85;1.80;;;12.80;99.90;;;;;;4993240;28;20050;-74
2022/10/08 01:25:56;;;;;;;6.82;1.83;;;12.70;99.90;;;;;;4992652;28;20052;-74
2022/10/08 01:28:41;;;;;;;7.45;2.75;;;12.80;99.90;;;;;;4993114;28;20563;-75
2022/10/08 01:31:17;;;;;;;7.55;1.80;;;12.70;99.90;;;;;;4994352;28;20039;-74
2022/10/08 01:34:03;;;;;;;8.52;1.90;;;12.60;99.90;;;;;;4994236;28;20081;-74
2022/10/08 01:36:39;;;;;;;9.05;1.88;;;12.80;99.90;;;;;;4993029;28;20411;-74
2022/10/08 01:39:09;;;;;;;4.57;1.60;;;12.80;99.90;;;;;;4992890;28;20089;-74
2022/10/08 01:41:35;;;;;;;3.67;1.75;;;12.80;99.90;;;;;;5009331;28;20049;-74
2022/10/08 01:44:31;;;;;;;10.15;1.73;;;12.80;99.90;;;;;;5012266;28;20139;-74
2022/10/08 01:47:00;;;;;;;5.60;1.80;;;12.90;99.90;;;;;;5012575;28;20048;-75
2022/10/08 01:49:30;;;;;;;7.40;1.75;;;12.80;99.90;;;;;;4996102;28;20034;-75
2022/10/08 01:52:07;;;;;;;5.68;1.40;;;12.70;99.90;;;;;;4995510;28;20033;-74
2022/10/08 01:54:34;;;;;;;5.63;1.55;;;12.80;99.90;;;;;;5011603;28;20041;-74
2022/10/08 01:57:04;;;;;;;7.85;1.65;;;12.80;99.90;;;;;;4995787;28;20415;-74
2022/10/08 01:59:35;;;;;;;7.68;1.60;;;12.80;99.90;;;;;;5013253;28;20045;-74
2022/10/08 02:02:05;;;;;;;6.03;1.52;;;12.70;99.90;;;;;;5013304;28;20369;-74
2022/10/08 02:04:32;;;;;;;6.70;1.77;;;12.60;99.90;;;;;;5010854;28;20038;-74
2022/10/08 02:07:10;;;;;;;9.32;1.55;;;12.50;99.90;;;;;;5010870;28;20034;-74
2022/10/08 02:09:41;;;;;;;10.55;2.00;;;12.60;99.90;;;;;;5011744;28;20499;-74
2022/10/08 02:12:08;;;;;;;4.75;1.40;;;12.60;99.90;;;;;;5013359;28;20033;-74
2022/10/08 02:14:36;;;;;;;7.40;1.75;;;12.60;99.90;;;;;;5012848;28;20092;-74
2022/10/08 02:17:50;;;;;;;8.73;2.35;;;12.60;99.90;;;;;;5013156;28;20046;-74
2022/10/08 02:20:41;;;;;;;6.47;1.70;;;12.60;99.90;;;;;;4990367;28;20052;-74
2022/10/08 02:23:30;;;;;;;8.55;1.60;;;12.50;99.90;;;;;;5013128;28;20495;-73
2022/10/08 02:26:01;;;;;;;7.80;2.03;;;12.60;99.90;;;;;;5012231;28;20091;-73
2022/10/08 02:28:32;;;;;;;10.60;1.95;;;12.40;99.90;;;;;;5011654;28;20134;-73
2022/10/08 02:31:21;;;;;;;8.68;1.98;;;12.40;99.90;;;;;;5011467;28;20049;-73
2022/10/08 02:34:10;;;;;;;9.88;2.15;;;12.50;99.90;;;;;;5011436;28;20041;-74
2022/10/08 02:36:42;;;;;;;8.02;1.90;;;12.40;99.90;;;;;;5012216;28;20088;-73
2022/10/08 02:39:11;;;;;;;8.93;1.83;;;12.30;99.90;;;;;;5011079;28;20042;-73
2022/10/08 02:41:41;;;;;;;10.93;2.50;;;12.30;99.90;;;;;;5012773;28;20064;-74
2022/10/08 02:44:11;;;;;;;7.68;1.88;;;12.50;99.90;;;;;;5011229;28;20052;-73
2022/10/08 02:46:41;;;;;;;11.68;2.22;;;12.40;99.90;;;;;;5013232;28;20133;-73
2022/10/08 02:49:22;;;;;;;11.25;2.40;;;12.50;99.90;;;;;;5003329;28;20097;-73
2022/10/08 02:51:50;;;;;;;6.97;2.55;;;12.30;99.90;;;;;;5028143;28;20101;-73
2022/10/08 02:54:19;;;;;;;7.65;2.15;;;12.20;99.90;;;;;;5011626;28;20038;-73
2022/10/08 02:56:54;;;;;;;10.88;2.50;;;12.40;99.90;;;;;;5021014;28;20042;-73
2022/10/08 02:59:20;;;;;;;5.47;1.75;;;12.30;99.90;;;;;;4994965;28;20075;-73
2022/10/08 03:02:01;;;;;;;6.60;2.17;;;12.40;99.90;;;;;;5013002;28;20370;-73
2022/10/08 03:04:33;;;;;;;10.07;2.50;;;12.40;99.90;;;;;;5011093;28;20077;-74
2022/10/08 03:06:59;;;;;;;10.55;2.17;;;12.40;99.90;;;;;;5011043;28;20124;-74
2022/10/08 03:09:31;;;;;;;11.05;2.53;;;12.20;99.90;;;;;;5012309;28;20113;-74
2022/10/08 03:11:58;;;;;;;11.65;2.67;;;12.30;99.90;;;;;;5012065;28;20080;-73
2022/10/08 03:14:24;;;;;;;11.20;2.53;;;12.40;99.90;;;;;;5010770;28;20038;-74
2022/10/08 03:16:50;;;;;;;8.10;1.90;;;;;;;;;;5011262;28;20046;-74
2022/10/08 03:19:17;;;;;;;10.88;2.53;;;11.90;99.90;;;;;;5013052;28;20162;-74
2022/10/08 03:21:45;;;;;;;5.78;1.77;;;12.30;99.90;;;;;;5015400;28;20044;-74
2022/10/08 03:24:13;;;;;;;11.32;2.30;;;12.20;99.90;;;;;;4997857;28;20046;-74
2022/10/08 03:26:39;;;;;;;9.70;1.90;;;12.30;99.90;;;;;;5014137;28;20526;-74
2022/10/08 03:29:05;;;;;;;12.93;2.10;;;12.40;99.90;;;;;;5014529;28;20053;-74
2022/10/08 03:31:31;;;;;;;6.28;1.90;;;12.30;99.90;;;;;;5016138;28;20057;-74
2022/10/08 03:33:57;;;;;;;10.05;2.38;;;;;;;;;;5015984;28;20037;-74
2022/10/08 03:36:24;;;;;;;12.65;1.83;;;12.00;99.90;;;;;;4998286;28;20049;-74
2022/10/08 03:38:50;;;;;;;11.88;1.92;;;12.10;99.90;;;;;;5014802;28;20073;-74
2022/10/08 03:41:17;;;;;;;13.85;3.10;;;;;;;;;;5014857;28;20496;-73
2022/10/08 03:43:43;;;;;;;9.80;2.53;;;12.10;99.90;;;;;;5015922;28;20094;-73
2022/10/08 03:46:10;;;;;;;17.23;3.03;;;12.10;99.90;;;;;;5015680;28;20081;-73
2022/10/08 03:48:36;;;;;;;12.60;3.70;;;;;;;;;;5015707;28;20034;-73
2022/10/08 03:51:06;;;;;;;12.35;2.95;;;12.00;99.90;;;;;;5014177;28;20065;-73
2022/10/08 03:53:34;;;;;;;9.98;2.20;;;11.90;99.90;;;;;;5015669;28;20095;-73
2022/10/08 03:56:02;;;;;;;5.72;1.65;;;11.90;99.90;;;;;;5014247;28;20045;-73
2022/10/08 03:58:29;;;;;;;17.40;3.45;;;;;;;;;;5014263;28;20041;-72
2022/10/08 04:00:59;;;;;;;15.32;2.88;;;11.70;99.90;;;;;;5014588;28;20133;-72
2022/10/08 04:03:26;;;;;;;10.65;2.45;;;11.60;99.90;;;;;;5014141;28;20514;-72
2022/10/08 04:05:52;;;;;;;16.38;2.45;;;11.60;99.90;;;;;;5013515;28;20042;-73
2022/10/08 04:08:17;;;;;;;16.38;2.50;;;11.60;99.90;;;;;;5014122;28;20480;-73
2022/10/08 04:10:43;;;;;;;12.70;1.90;;;11.60;99.90;;;;;;5014301;28;20037;-73
2022/10/08 04:13:09;;;;;;;13.80;2.67;;;;;;;;;;5014288;28;20038;-73
2022/10/08 04:15:35;;;;;;;11.80;2.30;;;11.40;99.90;;;;;;5014954;28;20038;-73
2022/10/08 04:18:00;;;;;;;10.85;1.75;;;11.40;99.90;;;;;;5015314;28;20046;-73
2022/10/08 04:20:26;;;;;;;7.20;1.85;;;11.40;99.90;;;;;;5014184;28;20033;-74
2022/10/08 04:22:52;;;;;;;12.70;2.28;;;11.60;99.90;;;;;;5014010;28;20125;-73
2022/10/08 04:25:18;;;;;;;5.55;2.00;;;;;;;;;;5013357;28;20038;-74
2022/10/08 04:27:47;;;;;;;10.55;1.95;;;;;;;;;;5013876;28;20516;-73
2022/10/08 04:30:14;;;;;;;12.32;2.03;;;;;;;;;;5013049;28;20511;-73
2022/10/08 04:32:39;;;;;;;10.57;2.47;;;11.40;99.90;;;;;;5015020;28;20525;-73
2022/10/08 04:35:05;;;;;;;8.82;3.22;;;11.40;99.90;;;;;;4996909;28;20120;-73
2022/10/08 04:37:31;;;;;;;15.10;3.00;;;11.30;99.90;;;;;;5013653;28;20078;-73
2022/10/08 04:39:57;;;;;;;16.65;3.80;;;;;;;;;;5014935;28;20077;-73
2022/10/08 04:42:23;;;;;;;13.45;2.63;;;;;;;;;;5013687;28;20058;-73
2022/10/08 04:44:49;;;;;;;9.45;2.70;;;;;;;;;;5028620;28;20041;-73
2022/10/08 04:47:15;;;;;;;8.48;2.25;;;;;;;;;;5032938;28;20512;-73
2022/10/08 04:49:41;;;;;;;10.00;2.78;;;11.30;99.90;;;;;;5032992;28;20037;-73
2022/10/08 04:52:07;;;;;;;12.32;3.53;;;11.00;99.90;;;;;;5033271;28;20483;-73
2022/10/08 04:54:32;;;;;;;13.57;2.40;;;11.20;99.90;;;;;;5032633;28;20072;-73
2022/10/08 04:56:58;;;;;;;12.40;2.55;;;11.10;99.90;;;;;;5034474;28;20045;-73
2022/10/08 04:59:24;;;;;;;13.32;2.80;;;;;;;;;;5032701;28;20033;-73
2022/10/08 05:01:51;;;;;;;13.50;2.95;;;11.20;99.90;;;;;;5028075;28;20113;-73
2022/10/08 05:04:17;;;;;;;9.70;2.75;;;11.20;99.90;;;;;;5012926;28;20096;-73
2022/10/08 05:06:42;;;;;;;14.30;2.58;;;11.20;99.90;;;;;;5013159;28;20492;-73
2022/10/08 05:09:08;;;;;;;12.60;3.47;;;11.00;99.90;;;;;;5013122;28;20503;-72
2022/10/08 05:11:34;;;;;;;8.88;2.60;;;11.00;99.90;;;;;;5013421;28;20042;-73
2022/10/08 05:13:59;;;;;;;16.08;2.38;;;11.10;99.90;;;;;;5013862;28;20488;-73
2022/10/08 05:16:26;;;;;;;8.63;2.05;;;11.00;99.90;;;;;;5012983;28;20105;-74
2022/10/08 05:18:52;;;;;;;6.95;2.38;;;10.90;99.90;;;;;;5014201;28;20073;-74
2022/10/08 05:21:21;;;;;;;11.85;1.92;;;11.10;99.90;;;;;;5026013;28;20519;-73
2022/10/08 05:23:47;;;;;;;9.82;2.17;;;11.00;99.90;;;;;;5025323;28;20050;-73
2022/10/08 05:26:17;;;;;;;10.80;2.70;;;11.00;99.90;;;;;;5027016;28;20054;-73
2022/10/08 05:28:45;;;;;;;13.32;2.58;;;11.00;99.90;;;;;;5022096;28;20041;-73
2022/10/08 05:31:11;;;;;;;12.57;2.72;;;;;;;;;;5013014;28;20092;-74
2022/10/08 05:33:37;;;;;;;12.05;2.55;;;11.00;99.90;;;;;;5011754;28;20038;-74
2022/10/08 05:36:14;;;;;;;11.13;1.92;;;10.90;99.90;;;;;;4995667;28;20099;-73
2022/10/08 05:38:42;;;;;;;11.32;2.10;;;10.90;99.90;;;;;;5011779;28;20034;-74
2022/10/08 05:41:10;;;;;;;12.23;2.13;;;10.80;99.90;;;;;;5011692;28;20487;-74
2022/10/08 05:43:35;;;;;;;16.83;3.05;;;10.90;99.90;;;;;;4994751;28;20030;-74
2022/10/08 05:46:01;;;;;;;5.82;2.05;;;10.90;99.90;;;;;;5010816;28;20121;-73
2022/10/08 05:48:26;;;;;;;6.78;1.95;;;10.90;99.90;;;;;;5014193;28;20518;-72
2022/10/08 05:50:52;;;;;;;9.30;2.08;;;;;;;;;;5010718;28;20124;-76
2022/10/08 05:53:18;;;;;;;7.20;2.00;;;;;;;;;;4995472;28;20080;-73
2022/10/08 05:55:44;;;;;;;12.93;3.08;;;;;;;;;;5012306;28;20125;-74
2022/10/08 05:58:10;;;;;;;13.27;2.80;;;10.90;99.90;;;;;;5012505;28;20052;-74
2022/10/08 06:00:35;;;;;;;15.32;2.45;;;10.80;99.90;;;;;;5012653;28;20030;-74
2022/10/08 06:03:01;;;;;;;18.02;3.13;;;;;;;;;;5011039;28;20706;-74
2022/10/08 06:05:27;;;;;;;10.75;2.30;;;10.90;99.90;;;;;;5010816;28;20034;-73
2022/10/08 06:07:56;;;;;;;11.73;2.88;;;;;;;;;;5009432;28;20513;-74
2022/10/08 06:10:23;;;;;;;14.48;3.28;;;10.60;99.90;;;;;;5011738;28;20460;-73
2022/10/08 06:12:49;;;;;;;14.73;2.35;;;;;;;;;;5010952;28;20034;-73
2022/10/08 06:15:14;;;;;;;12.48;2.38;;;11.00;99.90;;;;;;4996534;28;20047;-74
2022/10/08 06:17:40;;;;;;;12.88;2.25;;;11.00;99.90;;;;;;5030889;28;20041;-73
2022/10/08 06:20:06;;;;;;;13.00;2.60;;;11.00;99.90;;;;;;5030525;28;20554;-74
2022/10/08 06:22:32;;;;;;;15.02;2.70;;;;;;;;;;5016750;28;20034;-74
2022/10/08 06:24:58;;;;;;;11.73;2.60;;;;;;;;;;5011369;28;20061;-74
2022/10/08 06:27:23;;;;;;;12.05;2.40;;;11.40;99.90;;;;;;5011089;28;20046;-74
2022/10/08 06:29:49;;;;;;;12.25;1.90;;;11.20;99.90;;;;;;5010662;28;20057;-74
2022/10/08 06:32:14;;;;;;;16.58;2.33;;;11.50;99.90;;;;;;5013226;28;20076;-74
2022/10/08 06:34:40;;;;;;;10.52;1.88;;;;;;;;;;5014424;28;20503;-74
2022/10/08 06:37:07;;;;;;;8.27;2.28;;;;;;;;;;5032667;28;20099;-75
2022/10/08 06:39:33;;;;;;;11.52;2.00;;;;;;;;;;5019652;28;20048;-74
2022/10/08 06:41:58;;;;;;;8.18;1.85;;;11.40;99.90;;;;;;4995020;28;20077;-74
2022/10/08 06:44:24;;;;;;;10.55;1.88;;;11.50;99.90;;;;;;4994736;28;20123;-74
2022/10/08 06:46:49;;;;;;;13.13;2.63;;;11.50;99.90;;;;;;5012246;28;20046;-74
2022/10/08 06:49:17;;;;;;;10.77;1.80;;;;;;;;;;5011032;28;20042;-74
2022/10/08 06:51:43;;;;;;;15.70;3.78;;;;;;;;;;5011467;28;20054;-74
2022/10/08 06:54:08;;;;;;;7.53;2.67;;;11.40;99.90;;;;;;5007854;28;20113;-74
2022/10/08 06:56:35;;;;;;;10.85;2.15;;;11.20;99.90;;;;;;5008857;28;20038;-74
2022/10/08 06:59:05;;;;;;;12.90;2.28;;;11.30;99.90;;;;;;5008074;28;20045;-73
2022/10/08 07:01:31;;;;;;;12.55;3.28;;;;;;;;;;5003370;28;20056;-73
2022/10/08 07:03:59;;;;;;;8.50;2.40;;;11.40;99.90;;;;;;4990222;28;20107;-73
2022/10/08 07:06:26;;;;;;;8.07;2.15;;;11.50;99.90;;;;;;5007750;28;20050;-73
2022/10/08 07:08:56;;;;;;;12.23;2.33;;;11.60;99.90;;;;;;5005370;28;20478;-73
2022/10/08 07:11:22;;;;;;;8.25;1.73;;;11.60;99.90;;;;;;4999398;28;20046;-73
2022/10/08 07:13:48;;;;;;;10.35;2.10;;;11.60;99.90;;;;;;5006682;28;20528;-73
2022/10/08 07:16:19;;;;;;;14.45;3.75;;;11.50;99.90;;;;;;4991060;28;20358;-73
2022/10/08 07:18:46;;;;;;;8.60;1.85;;;11.80;99.90;;;;;;5007292;28;20045;-73
2022/10/08 07:21:13;;;;;;;10.73;2.33;;;11.80;99.90;;;;;;5008760;28;20085;-73
2022/10/08 07:23:39;;;;;;;11.27;1.88;;;11.70;99.90;;;;;;5008624;28;20088;-73
2022/10/08 07:26:17;;;;;;;9.85;2.50;;;11.90;99.90;;;;;;4990657;28;20111;-73
2022/10/08 07:28:49;;;;;;;7.63;1.60;;;11.80;99.90;;;;;;5024250;28;20045;-73
2022/10/08 07:31:20;;;;;;;13.15;1.95;;;11.80;99.90;;;;;;5011417;28;20143;-74
2022/10/08 07:33:46;;;;;;;10.10;1.77;;;11.70;99.90;;;;;;5017529;28;20053;-73
2022/10/08 07:36:14;;;;;;;8.50;2.22;;;11.90;99.90;;;;;;5019725;28;20077;-73
2022/10/08 07:38:41;;;;;;;7.72;1.83;;;11.90;99.90;;;;;;5018222;28;20046;-74
2022/10/08 07:41:08;;;;;;;8.73;1.65;;;11.80;99.90;;;;;;5020928;28;20049;-72
2022/10/08 07:43:34;;;;;;;7.28;1.52;;;11.90;99.90;;;;;;5002980;28;20038;-72
2022/10/08 07:46:00;;;;;;;12.43;2.00;;;;;;;;;;5018996;28;20042;-73
2022/10/08 07:48:29;;;;;;;11.60;2.10;;;12.20;99.90;;;;;;5009545;28;20041;-73
2022/10/08 07:50:55;;;;;;;4.88;1.52;;;12.30;99.90;;;;;;5024442;28;20030;-73
2022/10/08 07:53:21;;;;;;;10.55;1.65;;;;;;;;;;5033325;28;20044;-73
2022/10/08 07:55:47;;;;;;;12.23;2.15;;;;;;;;;;5009764;28;20045;-73
2022/10/08 07:58:13;;;;;;;13.15;2.63;;;;;;;;;;5016192;28;20034;-73
2022/10/08 08:00:39;;;;;;;10.40;3.50;;;12.70;99.90;;;;;;5016904;28;20045;-74
2022/10/08 08:03:06;;;;;;;9.00;2.25;;;;;;;;;;5011841;28;20512;-73
2022/10/08 08:05:34;;;;;;;10.32;2.67;;;13.00;99.90;;;;;;5011598;28;20096;-74
2022/10/08 08:08:00;;;;;;;10.88;2.85;;;13.10;99.90;;;;;;5015470;28;20467;-74
2022/10/08 08:10:26;;;;;;;7.45;1.90;;;13.30;99.90;;;;;;5018045;28;20025;-74
2022/10/08 08:12:52;;;;;;;4.55;2.03;;;;;;;;;;4997823;28;20080;-74
2022/10/08 08:15:18;;;;;;;8.27;2.03;;;;;;;;;;4997471;28;20038;-74
2022/10/08 08:17:43;;;;;;;8.20;2.63;;;13.20;99.90;;;;;;5013357;28;20518;-74
2022/10/08 08:20:09;;;;;;;10.80;3.22;;;;;;;;;;5024924;28;20052;-74
2022/10/08 08:22:35;;;;;;;6.75;1.60;;;13.40;99.90;;;;;;5025673;28;20042;-74
2022/10/08 08:25:01;;;;;;;6.20;2.30;;;;;;;;;;5026341;28;20052;-73
2022/10/08 08:27:27;;;;;;;10.70;2.45;;;13.70;99.90;;;;;;5025550;28;20041;-73
2022/10/08 08:29:53;;;;;;;12.23;2.63;;;;;;;;;;5026431;28;20044;-73
2022/10/08 08:32:18;;;;;;;19.55;3.78;;;13.80;99.90;;;;;;5004873;28;20041;-72
2022/10/08 08:34:45;;;;;;;9.70;1.60;;;14.10;99.90;;;;;;5029983;28;20124;-72
2022/10/08 08:37:11;;;;;;;7.50;2.60;;;14.10;99.90;;;;;;5029495;28;20508;-72
2022/10/08 08:39:36;;;;;;;8.52;1.88;;;14.10;99.90;;;;;;5021452;28;20042;-73
2022/10/08 08:42:17;;;;;;;9.60;2.28;;;14.10;99.90;;;;;;5013441;28;20042;-74
2022/10/08 08:44:48;;;;;;;6.28;1.50;;;14.10;99.90;;;;;;5027099;28;20063;-73
2022/10/08 08:47:20;;;;;;;8.93;2.10;;;13.90;99.90;;;;;;4991063;28;20057;-73
2022/10/08 08:49:49;;;;;;;11.20;2.58;;;14.00;99.90;;;;;;4995060;28;20038;-73
2022/10/08 08:52:18;;;;;;;7.63;2.45;;;14.10;99.90;;;;;;4995337;28;20125;-73
2022/10/08 08:54:52;;;;;;;4.20;1.30;;;14.10;99.90;;;;;;4993575;28;20035;-74
2022/10/08 08:57:17;;;;;;;6.55;2.03;;;13.90;99.90;;;;;;4995139;28;20531;-74
2022/10/08 08:59:46;;;;;;;6.50;2.28;;;13.90;99.90;;;;;;4993857;28;20050;-73
2022/10/08 09:02:23;;;;;;;7.53;1.70;;;14.00;99.90;;;;;;4977680;28;20096;-74
2022/10/08 09:04:59;;;;;;;6.45;1.98;;;14.10;99.90;;;;;;4993464;28;20073;-74
2022/10/08 09:07:32;;;;;;;4.45;1.13;;;14.00;99.90;;;;;;4993673;28;20043;-74
2022/10/08 09:09:58;;;;;;;5.15;1.13;;;14.30;99.90;;;;;;4993786;28;20130;-74
2022/10/08 09:12:36;;;;;;;5.40;1.08;;;14.40;99.90;;;;;;4993736;28;20121;-74
2022/10/08 09:15:04;;;;;;;4.80;1.48;;;14.30;99.90;;;;;;4977095;28;20042;-74
2022/10/08 09:17:34;;;;;;;10.07;1.95;;;14.40;99.90;;;;;;4993525;28;20049;-74
2022/10/08 09:20:00;;;;;;;11.52;2.08;;;;;;;;;;4980885;28;20038;-74
2022/10/08 09:22:38;;;;;;;7.63;1.73;;;14.70;99.90;;;;;;5013269;28;20045;-74
2022/10/08 09:25:21;;;;;;;9.68;1.40;;;14.60;99.90;;;;;;5012517;28;20496;-74
2022/10/08 09:27:53;;;;;;;7.32;1.40;;;14.60;99.90;;;;;;5014238;28;20053;-74
2022/10/08 09:30:38;;;;;;;10.63;1.55;;;14.60;99.90;;;;;;5012795;28;20045;-74
2022/10/08 09:33:07;;;;;;;7.05;1.38;;;14.70;99.90;;;;;;5012706;28;20043;-74
2022/10/08 09:35:33;;;;;;;6.15;1.33;;;14.70;99.90;;;;;;4995726;28;20495;-74
2022/10/08 09:37:59;;;;;;;9.75;1.30;;;14.60;99.90;;;;;;5013754;28;20500;-74
2022/10/08 09:40:27;;;;;;;5.57;1.27;;;15.00;99.90;;;;;;4996327;28;20100;-74
2022/10/08 09:43:12;;;;;;;7.30;1.40;;;15.00;99.90;;;;;;4996564;28;20049;-74
2022/10/08 09:45:39;;;;;;;14.60;1.60;;;15.00;99.90;;;;;;5012181;28;20038;-74
2022/10/08 09:48:14;;;;;;;8.10;2.03;;;14.90;99.90;;;;;;5012042;28;20073;-73
2022/10/08 09:50:54;;;;;;;10.95;1.42;;;14.90;99.90;;;;;;5012467;28;20083;-74
2022/10/08 09:53:22;;;;;;;8.77;1.40;;;15.10;99.90;;;;;;4995601;28;20102;-74
2022/10/08 09:55:52;;;;;;;5.95;1.20;;;15.10;99.90;;;;;;4995671;28;20048;-74
2022/10/08 09:58:18;;;;;;;7.93;1.92;;;15.20;99.90;;;;;;5012312;28;20042;-74
2022/10/08 10:00:45;;;;;;;10.30;1.27;;;15.10;99.90;;;;;;5012573;28;20491;-73
2022/10/08 10:03:18;;;;;;;9.30;1.27;;;15.30;99.90;;;;;;5013852;28;20046;-74
2022/10/08 10:05:51;;;;;;;8.93;1.33;;;15.30;99.90;;;;;;5012478;28;20050;-74
2022/10/08 10:08:49;;;;;;;9.02;1.15;;;15.00;99.90;;;;;;5013819;28;20033;-72
2022/10/08 10:11:38;;;;;;;12.70;1.30;;;15.00;99.90;;;;;;5011435;28;20128;-73
2022/10/08 10:14:21;;;;;;;8.90;1.40;;;15.30;99.90;;;;;;5011579;28;20041;-74
2022/10/08 10:16:52;;;;;;;4.47;1.35;;;15.30;99.90;;;;;;5012073;28;20041;-73
2022/10/08 10:19:22;;;;;;;7.53;1.27;;;15.40;99.90;;;;;;5003848;28;20049;-73
2022/10/08 10:22:08;;;;;;;6.32;1.58;;;15.60;99.90;;;;;;5033169;28;20089;-73
2022/10/08 10:24:52;;;;;;;7.50;1.48;;;15.60;99.90;;;;;;5033252;28;20021;-74
2022/10/08 10:27:31;;;;;;;10.15;2.30;;;15.40;99.90;;;;;;5022142;28;20042;-74
2022/10/08 10:30:11;;;;;;;7.15;1.30;;;15.60;99.90;;;;;;4996763;28;20041;-75
2022/10/08 10:32:42;;;;;;;9.77;2.00;;;15.50;99.90;;;;;;5012315;28;20507;-74
2022/10/08 10:35:28;;;;;;;8.60;1.73;;;15.20;99.90;;;;;;5013102;28;20036;-74
2022/10/08 10:38:27;;;;;;;10.63;1.90;;;15.80;99.90;;;;;;5013151;28;20038;-74
2022/10/08 10:41:13;;;;;;;13.00;1.90;;;15.80;99.90;;;;;;5011741;28;20569;-74
2022/10/08 10:43:56;;;;;;;15.05;1.80;;;15.70;99.90;;;;;;5011983;28;20042;-74
2022/10/08 10:46:40;;;;;;;7.65;1.63;;;15.70;99.90;;;;;;5011388;28;20052;-75
2022/10/08 10:49:16;;;;;;;7.30;1.30;;;16.30;99.90;;;;;;4995108;28;20092;-74
2022/10/08 10:51:55;;;;;;;13.82;3.47;;;16.60;99.90;;;;;;5011639;28;20103;-74
2022/10/08 10:54:53;;;;;;;10.38;2.10;;;15.60;99.90;;;;;;5011218;28;20034;-74
2022/10/08 10:57:29;;;;;;;9.07;1.80;;;14.90;99.90;;;;;;5011451;28;20495;-74
2022/10/08 11:00:10;;;;;;;4.22;1.25;;;14.90;99.90;;;;;;5011396;28;20056;-75
2022/10/08 11:02:45;;;;;;;8.32;2.03;;;14.90;99.90;;;;;;5011304;28;20099;-74
2022/10/08 11:05:26;;;;;;;10.23;2.03;;;16.20;99.90;;;;;;5011806;28;20076;-74
2022/10/08 11:08:07;;;;;;;10.60;1.98;;;15.70;99.90;;;;;;4994583;28;20590;-74
2022/10/08 11:10:56;;;;;;;9.68;1.90;;;15.30;99.90;;;;;;5012579;28;20096;-74
2022/10/08 11:13:59;;;;;;;9.52;1.77;;;15.60;99.90;;;;;;5011363;28;20044;-74
2022/10/08 11:16:30;;;;;;;5.23;1.50;;;15.80;99.90;;;;;;5012433;28;20048;-74
2022/10/08 11:18:59;;;;;;;5.28;1.95;;;16.00;99.90;;;;;;5010870;28;20080;-74
2022/10/08 11:21:46;;;;;;;8.88;2.25;;;16.20;99.90;;;;;;4994767;28;20618;-74
2022/10/08 11:24:24;;;;;;;7.75;2.00;;;16.10;99.90;;;;;;5012148;28;20050;-74
2022/10/08 11:27:10;;;;;;;11.23;1.80;;;16.20;99.90;;;;;;5012180;28;20099;-75
2022/10/08 11:29:47;;;;;;;7.97;1.45;;;15.90;99.90;;;;;;5011222;28;20061;-74
2022/10/08 11:32:16;;;;;;;6.05;1.38;;;15.90;99.90;;;;;;5011071;28;20038;-74
2022/10/08 11:34:48;;;;;;;12.38;1.65;;;16.00;99.90;;;;;;5011700;28;20112;-74
2022/10/08 11:37:21;;;;;;;10.60;1.70;;;16.90;99.90;;;;;;5012201;28;20063;-74
2022/10/08 11:40:01;;;;;;;9.98;1.80;;;16.20;99.90;;;;;;4994802;28;20046;-74
2022/10/08 11:43:01;;;;;;;10.20;2.78;;;16.00;99.90;;;;;;5016272;28;20527;-74
2022/10/08 11:45:44;;;;;;;9.75;1.85;;;16.10;99.90;;;;;;5013399;28;20424;-74
2022/10/08 11:48:39;;;;;;;13.32;2.42;;;15.70;99.90;;;;;;5014544;28;20149;-74
2022/10/08 11:51:17;;;;;;;12.07;1.45;;;15.80;99.90;;;;;;4985729;28;20050;-74
2022/10/08 11:54:02;;;;;;;7.00;1.52;;;15.60;99.90;;;;;;5014287;28;20049;-74
2022/10/08 11:56:28;;;;;;;8.50;1.52;;;15.60;99.90;;;;;;5016265;28;20038;-75
2022/10/08 11:58:58;;;;;;;10.75;1.40;;;16.00;99.90;;;;;;5014150;28;20045;-74
2022/10/08 12:01:24;;;;;;;8.43;1.77;;;16.00;99.90;;;;;;5015827;28;20113;-74
2022/10/08 12:04:26;;;;;;;6.13;1.80;;;16.30;99.90;;;;;;4997850;28;20139;-75
2022/10/08 12:07:02;;;;;;;7.75;1.38;;;16.30;99.90;;;;;;5014214;28;20037;-74
2022/10/08 12:10:06;;;;;;;12.80;2.28;;;16.20;99.90;;;;;;5014299;28;20089;-74
2022/10/08 12:12:50;;;;;;;8.18;1.70;;;16.20;99.90;;;;;;5014830;28;20281;-74
2022/10/08 12:15:37;;;;;;;7.97;1.73;;;16.40;99.90;;;;;;5013983;28;20038;-75
2022/10/08 12:18:09;;;;;;;6.57;1.30;;;17.60;99.90;;;;;;5004570;28;20133;-74
2022/10/08 12:20:36;;;;;;;8.50;1.60;;;16.50;99.90;;;;;;4997279;28;20041;-75
2022/10/08 12:23:19;;;;;;;8.82;1.80;;;15.80;99.90;;;;;;5014014;28;20056;-74
2022/10/08 12:25:44;;;;;;;9.27;1.50;;;15.80;99.90;;;;;;5013662;28;20069;-74
2022/10/08 12:28:19;;;;;;;8.27;1.90;;;15.70;99.90;;;;;;5015177;28;20088;-75
2022/10/08 12:30:49;;;;;;;7.53;1.70;;;15.80;99.90;;;;;;4997605;28;20124;-74
2022/10/08 12:33:15;;;;;;;8.15;1.42;;;16.10;99.90;;;;;;5015210;28;20038;-74
2022/10/08 12:36:05;;;;;;;9.18;1.55;;;16.80;99.90;;;;;;5013799;28;20038;-75
2022/10/08 12:38:43;;;;;;;6.55;1.05;;;17.10;99.90;;;;;;5004687;28;20057;-74
2022/10/08 12:41:20;;;;;;;4.13;1.42;;;16.20;99.90;;;;;;5015291;28;20084;-74
2022/10/08 12:43:57;;;;;;;3.80;1.20;;;17.00;99.90;;;;;;5013481;28;20046;-73
2022/10/08 12:46:26;;;;;;;6.00;1.60;;;15.50;99.90;;;;;;5016863;28;20046;-74
2022/10/08 12:49:16;;;;;;;5.32;1.27;;;15.70;99.90;;;;;;5017927;28;20045;-74
2022/10/08 12:52:06;;;;;;;4.00;1.10;;;15.20;99.90;;;;;;5033984;28;20030;-74
2022/10/08 12:54:32;;;;;;;2.38;0.93;;;15.20;99.90;;;;;;5029064;28;20411;-74
2022/10/08 12:56:59;;;;;;;7.28;1.52;;;15.50;99.90;;;;;;5014639;28;20502;-74
2022/10/08 12:59:30;;;;;;;4.05;1.30;;;15.00;99.90;;;;;;5015772;28;20073;-74
2022/10/08 13:01:56;;;;;;;4.97;1.35;;;15.00;99.90;;;;;;5013789;28;20049;-74
2022/10/08 13:04:28;;;;;;;6.88;1.45;;;14.80;99.90;;;;;;5014356;28;20045;-74
2022/10/08 13:06:54;;;;;;;13.55;3.17;;;14.70;99.90;;;;;;5014402;28;20519;-74
2022/10/08 13:09:30;;;;;;;10.60;2.17;;;14.90;99.90;;;;;;5014414;28;20038;-73
2022/10/08 13:11:58;;;;;;;4.97;1.55;;;14.80;99.90;;;;;;5013379;28;20041;-74
2022/10/08 13:14:32;;;;;;;6.72;1.30;;;15.30;99.90;;;;;;4996613;28;20044;-74
2022/10/08 13:16:58;;;;;;;7.45;1.33;;;15.30;99.90;;;;;;5012795;28;20124;-74
2022/10/08 13:19:35;;;;;;;9.90;1.35;;;15.40;99.90;;;;;;5013977;28;20457;-74